sensor_id;sensor_type;location;lat;lon;timestamp;temperature;humidity
19037;DHT22;9651;49.138;8.900;2023-03-01T00:00:09;-0.20;99.90
19037;DHT22;9651;49.138;8.900;2023-03-01T00:04:15;-0.20;99.90
19037;DHT22;9651;49.138;8.900;2023-03-01T00:08:18;-0.30;99.90
19037;DHT22;9651;49.138;8.900;2023-03-01T00:12:20;-0.30;99.90
19037;DHT22;9651;49.138;8.900;2023-03-01T00:16:23;-0.30;99.90
19037;DHT22;9651;49.138;8.900;2023-03-01T00:20:25;-0.30;99.90
19037;DHT22;9651;49.138;8.900;2023-03-01T00:24:28;-0.30;99.90
19037;DHT22;9651;49.138;8.900;2023-03-01T00:28:31;-0.30;99.90
19037;DHT22;9651;49.138;8.900;2023-03-01T00:32:33;-0.40;99.90
19037;DHT22;9651;49.138;8.900;2023-03-01T00:36:36;-0.40;99.90
19037;DHT22;9651;49.138;8.900;2023-03-01T00:40:40;-0.40;99.90
19037;DHT22;9651;49.138;8.900;2023-03-01T00:44:42;-0.40;99.90
19037;DHT22;9651;49.138;8.900;2023-03-01T00:48:44;-0.40;99.90
19037;DHT22;9651;49.138;8.900;2023-03-01T00:52:46;-0.40;99.90
19037;DHT22;9651;49.138;8.900;2023-03-01T00:56:49;-0.40;99.90
19037;DHT22;9651;49.138;8.900;2023-03-01T01:00:51;-0.40;99.90
19037;DHT22;9651;49.138;8.900;2023-03-01T01:04:53;-0.40;99.90
19037;DHT22;9651;49.138;8.900;2023-03-01T01:08:56;-0.40;99.90
19037;DHT22;9651;49.138;8.900;2023-03-01T01:12:59;-0.40;99.90
19037;DHT22;9651;49.138;8.900;2023-03-01T01:17:01;-0.50;99.90
19037;DHT22;9651;49.138;8.900;2023-03-01T01:21:05;-0.50;99.90
19037;DHT22;9651;49.138;8.900;2023-03-01T01:25:08;-0.50;99.90
19037;DHT22;9651;49.138;8.900;2023-03-01T01:29:12;-0.50;99.90
19037;DHT22;9651;49.138;8.900;2023-03-01T01:33:14;-0.40;99.90
19037;DHT22;9651;49.138;8.900;2023-03-01T01:37:15;-0.40;99.90
19037;DHT22;9651;49.138;8.900;2023-03-01T01:41:19;-0.40;99.90
19037;DHT22;9651;49.138;8.900;2023-03-01T01:45:34;-0.30;99.90
19037;DHT22;9651;49.138;8.900;2023-03-01T01:49:39;-0.30;99.90
19037;DHT22;9651;49.138;8.900;2023-03-01T01:53:45;-0.30;99.90
19037;DHT22;9651;49.138;8.900;2023-03-01T01:57:51;-0.30;99.90
19037;DHT22;9651;49.138;8.900;2023-03-01T02:01:58;-0.30;99.90
19037;DHT22;9651;49.138;8.900;2023-03-01T02:06:04;-0.30;99.90
19037;DHT22;9651;49.138;8.900;2023-03-01T02:10:07;-0.30;99.90
19037;DHT22;9651;49.138;8.900;2023-03-01T02:14:09;-0.30;99.90
19037;DHT22;9651;49.138;8.900;2023-03-01T02:18:14;-0.30;99.90
19037;DHT22;9651;49.138;8.900;2023-03-01T02:22:22;-0.40;99.90
19037;DHT22;9651;49.138;8.900;2023-03-01T02:26:30;-0.40;99.90
19037;DHT22;9651;49.138;8.900;2023-03-01T02:30:36;-0.40;99.90
19037;DHT22;9651;49.138;8.900;2023-03-01T02:34:58;-0.40;99.90
19037;DHT22;9651;49.138;8.900;2023-03-01T02:39:02;-0.40;99.90
19037;DHT22;9651;49.138;8.900;2023-03-01T02:43:08;-0.40;99.90
19037;DHT22;9651;49.138;8.900;2023-03-01T02:47:13;-0.50;99.90
19037;DHT22;9651;49.138;8.900;2023-03-01T02:51:38;-0.50;99.90
19037;DHT22;9651;49.138;8.900;2023-03-01T02:55:43;-0.50;99.90
19037;DHT22;9651;49.138;8.900;2023-03-01T02:59:45;-0.60;99.90
19037;DHT22;9651;49.138;8.900;2023-03-01T03:03:48;-0.60;99.90
19037;DHT22;9651;49.138;8.900;2023-03-01T03:07:52;-0.60;99.90
19037;DHT22;9651;49.138;8.900;2023-03-01T03:11:53;-0.60;99.90
19037;DHT22;9651;49.138;8.900;2023-03-01T03:15:57;-0.70;99.90
19037;DHT22;9651;49.138;8.900;2023-03-01T03:20:00;-0.70;99.90
19037;DHT22;9651;49.138;8.900;2023-03-01T03:24:04;-0.70;99.90
19037;DHT22;9651;49.138;8.900;2023-03-01T03:28:06;-0.80;99.90
19037;DHT22;9651;49.138;8.900;2023-03-01T03:32:10;-0.80;99.90
19037;DHT22;9651;49.138;8.900;2023-03-01T03:36:17;-0.80;99.90
19037;DHT22;9651;49.138;8.900;2023-03-01T03:40:19;-0.80;99.90
19037;DHT22;9651;49.138;8.900;2023-03-01T03:44:21;-0.80;99.90
19037;DHT22;9651;49.138;8.900;2023-03-01T03:48:23;-0.90;99.90
19037;DHT22;9651;49.138;8.900;2023-03-01T03:52:27;-0.90;99.90
19037;DHT22;9651;49.138;8.900;2023-03-01T03:56:28;-0.90;99.90
19037;DHT22;9651;49.138;8.900;2023-03-01T04:00:30;-0.90;99.90
19037;DHT22;9651;49.138;8.900;2023-03-01T04:04:32;-0.90;99.90
19037;DHT22;9651;49.138;8.900;2023-03-01T04:08:35;-0.90;99.90
19037;DHT22;9651;49.138;8.900;2023-03-01T04:12:37;-0.90;99.90
19037;DHT22;9651;49.138;8.900;2023-03-01T04:16:39;-1.00;99.90
19037;DHT22;9651;49.138;8.900;2023-03-01T04:20:42;-0.90;99.90
19037;DHT22;9651;49.138;8.900;2023-03-01T04:24:46;-0.90;99.90
19037;DHT22;9651;49.138;8.900;2023-03-01T04:28:49;-0.90;99.90
19037;DHT22;9651;49.138;8.900;2023-03-01T04:32:51;-0.90;99.90
19037;DHT22;9651;49.138;8.900;2023-03-01T04:36:53;-1.00;99.90
19037;DHT22;9651;49.138;8.900;2023-03-01T04:40:56;-1.00;99.90
19037;DHT22;9651;49.138;8.900;2023-03-01T04:44:58;-1.00;99.90
19037;DHT22;9651;49.138;8.900;2023-03-01T04:49:00;-1.00;99.90
19037;DHT22;9651;49.138;8.900;2023-03-01T04:53:02;-1.00;99.90
19037;DHT22;9651;49.138;8.900;2023-03-01T04:57:05;-1.00;99.90
19037;DHT22;9651;49.138;8.900;2023-03-01T05:01:10;-1.00;99.90
19037;DHT22;9651;49.138;8.900;2023-03-01T05:05:15;-1.00;99.90
19037;DHT22;9651;49.138;8.900;2023-03-01T05:09:17;-1.00;99.90
19037;DHT22;9651;49.138;8.900;2023-03-01T05:13:21;-1.00;99.90
19037;DHT22;9651;49.138;8.900;2023-03-01T05:17:23;-1.00;99.90
19037;DHT22;9651;49.138;8.900;2023-03-01T05:21:26;-0.90;99.90
19037;DHT22;9651;49.138;8.900;2023-03-01T05:25:28;-0.90;99.90
19037;DHT22;9651;49.138;8.900;2023-03-01T05:29:34;-1.00;99.90
19037;DHT22;9651;49.138;8.900;2023-03-01T05:33:37;-1.00;99.90
19037;DHT22;9651;49.138;8.900;2023-03-01T05:37:40;-1.00;99.90
19037;DHT22;9651;49.138;8.900;2023-03-01T05:41:43;-1.00;99.90
19037;DHT22;9651;49.138;8.900;2023-03-01T05:45:46;-1.00;99.90
19037;DHT22;9651;49.138;8.900;2023-03-01T05:49:48;-1.00;99.90
19037;DHT22;9651;49.138;8.900;2023-03-01T05:53:50;-1.10;99.90
19037;DHT22;9651;49.138;8.900;2023-03-01T05:57:52;-1.10;99.90
19037;DHT22;9651;49.138;8.900;2023-03-01T06:01:55;-1.10;99.90
19037;DHT22;9651;49.138;8.900;2023-03-01T06:05:58;-1.10;99.90
19037;DHT22;9651;49.138;8.900;2023-03-01T06:09:59;-1.10;99.90
19037;DHT22;9651;49.138;8.900;2023-03-01T06:14:02;-1.10;99.90
19037;DHT22;9651;49.138;8.900;2023-03-01T06:18:05;-1.00;99.90
19037;DHT22;9651;49.138;8.900;2023-03-01T06:22:07;-1.00;99.90
19037;DHT22;9651;49.138;8.900;2023-03-01T06:26:09;-1.10;99.90
19037;DHT22;9651;49.138;8.900;2023-03-01T06:30:14;-1.00;99.90
19037;DHT22;9651;49.138;8.900;2023-03-01T06:34:17;-0.90;99.90
19037;DHT22;9651;49.138;8.900;2023-03-01T06:38:19;-0.90;99.90
19037;DHT22;9651;49.138;8.900;2023-03-01T06:42:21;-0.80;99.90
19037;DHT22;9651;49.138;8.900;2023-03-01T06:46:23;-0.60;99.90
19037;DHT22;9651;49.138;8.900;2023-03-01T06:50:26;-0.50;99.90
19037;DHT22;9651;49.138;8.900;2023-03-01T06:54:28;-0.30;99.90
19037;DHT22;9651;49.138;8.900;2023-03-01T06:58:30;-0.20;99.90
19037;DHT22;9651;49.138;8.900;2023-03-01T07:02:32;0.00;99.90
19037;DHT22;9651;49.138;8.900;2023-03-01T07:06:35;0.20;99.90
19037;DHT22;9651;49.138;8.900;2023-03-01T07:10:37;0.50;99.90
19037;DHT22;9651;49.138;8.900;2023-03-01T07:14:39;0.70;99.90
19037;DHT22;9651;49.138;8.900;2023-03-01T07:18:41;1.00;99.90
19037;DHT22;9651;49.138;8.900;2023-03-01T07:22:44;1.20;99.90
19037;DHT22;9651;49.138;8.900;2023-03-01T07:26:48;1.40;99.90
19037;DHT22;9651;49.138;8.900;2023-03-01T07:30:50;1.80;99.90
19037;DHT22;9651;49.138;8.900;2023-03-01T07:34:52;2.00;99.90
19037;DHT22;9651;49.138;8.900;2023-03-01T07:38:55;2.00;99.90
19037;DHT22;9651;49.138;8.900;2023-03-01T07:42:58;2.30;99.90
19037;DHT22;9651;49.138;8.900;2023-03-01T07:47:03;2.60;99.90
19037;DHT22;9651;49.138;8.900;2023-03-01T07:51:06;2.90;99.90
19037;DHT22;9651;49.138;8.900;2023-03-01T07:55:09;3.30;99.90
19037;DHT22;9651;49.138;8.900;2023-03-01T07:59:11;3.50;99.90
19037;DHT22;9651;49.138;8.900;2023-03-01T08:03:13;3.60;99.90
19037;DHT22;9651;49.138;8.900;2023-03-01T08:07:15;3.50;99.90
19037;DHT22;9651;49.138;8.900;2023-03-01T08:11:18;3.80;99.90
19037;DHT22;9651;49.138;8.900;2023-03-01T08:15:20;3.80;99.90
19037;DHT22;9651;49.138;8.900;2023-03-01T08:19:22;4.20;99.90
19037;DHT22;9651;49.138;8.900;2023-03-01T08:23:24;4.10;99.90
19037;DHT22;9651;49.138;8.900;2023-03-01T08:27:27;4.10;99.90
19037;DHT22;9651;49.138;8.900;2023-03-01T08:31:30;4.00;99.90
19037;DHT22;9651;49.138;8.900;2023-03-01T08:35:32;4.10;99.90
19037;DHT22;9651;49.138;8.900;2023-03-01T08:39:34;3.70;99.90
19037;DHT22;9651;49.138;8.900;2023-03-01T08:43:38;3.80;99.90
19037;DHT22;9651;49.138;8.900;2023-03-01T08:47:39;3.90;99.90
19037;DHT22;9651;49.138;8.900;2023-03-01T08:51:42;3.60;99.90
19037;DHT22;9651;49.138;8.900;2023-03-01T08:55:44;4.40;99.90
19037;DHT22;9651;49.138;8.900;2023-03-01T08:59:47;5.00;99.90
19037;DHT22;9651;49.138;8.900;2023-03-01T09:03:49;5.20;99.90
19037;DHT22;9651;49.138;8.900;2023-03-01T09:07:51;5.90;99.90
19037;DHT22;9651;49.138;8.900;2023-03-01T09:11:53;5.50;99.90
19037;DHT22;9651;49.138;8.900;2023-03-01T09:15:56;5.40;99.90
19037;DHT22;9651;49.138;8.900;2023-03-01T09:19:58;5.30;99.90
19037;DHT22;9651;49.138;8.900;2023-03-01T09:24:00;5.80;99.90
19037;DHT22;9651;49.138;8.900;2023-03-01T09:28:02;6.60;99.90
19037;DHT22;9651;49.138;8.900;2023-03-01T09:32:05;6.90;99.90
19037;DHT22;9651;49.138;8.900;2023-03-01T09:36:11;7.10;99.90
19037;DHT22;9651;49.138;8.900;2023-03-01T09:40:16;6.80;99.90
19037;DHT22;9651;49.138;8.900;2023-03-01T09:44:26;7.50;99.90
19037;DHT22;9651;49.138;8.900;2023-03-01T09:48:36;7.60;99.90
19037;DHT22;9651;49.138;8.900;2023-03-01T09:52:41;7.50;99.90
19037;DHT22;9651;49.138;8.900;2023-03-01T09:56:46;8.30;99.90
19037;DHT22;9651;49.138;8.900;2023-03-01T10:00:56;9.00;99.90
19037;DHT22;9651;49.138;8.900;2023-03-01T10:05:14;9.50;99.90
19037;DHT22;9651;49.138;8.900;2023-03-01T10:09:18;9.70;99.90
19037;DHT22;9651;49.138;8.900;2023-03-01T10:13:24;10.00;99.90
19037;DHT22;9651;49.138;8.900;2023-03-01T10:17:31;10.10;99.90
19037;DHT22;9651;49.138;8.900;2023-03-01T10:21:43;8.80;99.90
19037;DHT22;9651;49.138;8.900;2023-03-01T10:26:02;9.30;99.90
19037;DHT22;9651;49.138;8.900;2023-03-01T10:30:13;10.10;99.90
19037;DHT22;9651;49.138;8.900;2023-03-01T10:34:20;10.60;99.60
19037;DHT22;9651;49.138;8.900;2023-03-01T10:38:25;11.10;98.60
19037;DHT22;9651;49.138;8.900;2023-03-01T10:42:29;11.20;97.90
19037;DHT22;9651;49.138;8.900;2023-03-01T10:46:33;11.50;97.50
19037;DHT22;9651;49.138;8.900;2023-03-01T10:50:36;11.80;96.30
19037;DHT22;9651;49.138;8.900;2023-03-01T10:54:51;12.00;95.90
19037;DHT22;9651;49.138;8.900;2023-03-01T10:58:59;12.00;95.00
19037;DHT22;9651;49.138;8.900;2023-03-01T11:03:12;12.30;94.80
19037;DHT22;9651;49.138;8.900;2023-03-01T11:07:14;13.30;94.10
19037;DHT22;9651;49.138;8.900;2023-03-01T11:11:33;14.30;92.10
19037;DHT22;9651;49.138;8.900;2023-03-01T11:15:35;14.40;90.90
19037;DHT22;9651;49.138;8.900;2023-03-01T11:19:37;14.80;89.80
19037;DHT22;9651;49.138;8.900;2023-03-01T11:23:39;14.90;88.00
19037;DHT22;9651;49.138;8.900;2023-03-01T11:27:45;14.90;85.70
19037;DHT22;9651;49.138;8.900;2023-03-01T11:31:48;14.70;85.30
19037;DHT22;9651;49.138;8.900;2023-03-01T11:35:57;13.90;84.70
19037;DHT22;9651;49.138;8.900;2023-03-01T11:40:10;13.90;86.40
19037;DHT22;9651;49.138;8.900;2023-03-01T11:44:18;14.10;85.50
19037;DHT22;9651;49.138;8.900;2023-03-01T11:48:39;14.80;83.90
19037;DHT22;9651;49.138;8.900;2023-03-01T11:52:52;14.60;82.00
19037;DHT22;9651;49.138;8.900;2023-03-01T11:57:01;14.50;82.30
19037;DHT22;9651;49.138;8.900;2023-03-01T12:01:20;14.70;81.90
19037;DHT22;9651;49.138;8.900;2023-03-01T12:10:20;15.20;81.30
19037;DHT22;9651;49.138;8.900;2023-03-01T12:14:44;14.90;81.30
19037;DHT22;9651;49.138;8.900;2023-03-01T12:19:16;15.60;79.60
19037;DHT22;9651;49.138;8.900;2023-03-01T12:23:44;16.60;77.30
19037;DHT22;9651;49.138;8.900;2023-03-01T12:32:36;16.40;75.80
19037;DHT22;9651;49.138;8.900;2023-03-01T12:36:53;15.00;75.60
19037;DHT22;9651;49.138;8.900;2023-03-01T12:45:50;14.30;78.10
19037;DHT22;9651;49.138;8.900;2023-03-01T12:49:58;13.30;79.20
19037;DHT22;9651;49.138;8.900;2023-03-01T12:54:10;11.90;81.80
19037;DHT22;9651;49.138;8.900;2023-03-01T12:58:23;10.90;84.20
19037;DHT22;9651;49.138;8.900;2023-03-01T13:02:31;10.20;87.30
19037;DHT22;9651;49.138;8.900;2023-03-01T13:06:42;9.80;89.20
19037;DHT22;9651;49.138;8.900;2023-03-01T13:10:50;9.90;90.40
19037;DHT22;9651;49.138;8.900;2023-03-01T13:14:54;9.60;90.40
19037;DHT22;9651;49.138;8.900;2023-03-01T13:19:07;9.50;90.80
19037;DHT22;9651;49.138;8.900;2023-03-01T13:23:13;9.30;91.00
19037;DHT22;9651;49.138;8.900;2023-03-01T13:27:26;8.70;91.10
19037;DHT22;9651;49.138;8.900;2023-03-01T13:36:07;8.60;92.50
19037;DHT22;9651;49.138;8.900;2023-03-01T13:44:57;8.50;92.90
19037;DHT22;9651;49.138;8.900;2023-03-01T13:49:00;8.60;93.10
19037;DHT22;9651;49.138;8.900;2023-03-01T13:53:05;8.50;92.90
19037;DHT22;9651;49.138;8.900;2023-03-01T13:57:21;8.60;93.20
19037;DHT22;9651;49.138;8.900;2023-03-01T14:01:28;8.50;93.50
19037;DHT22;9651;49.138;8.900;2023-03-01T14:05:30;8.50;93.30
19037;DHT22;9651;49.138;8.900;2023-03-01T14:09:32;8.40;93.40
19037;DHT22;9651;49.138;8.900;2023-03-01T14:13:48;8.40;93.80
19037;DHT22;9651;49.138;8.900;2023-03-01T14:18:00;8.40;93.40
19037;DHT22;9651;49.138;8.900;2023-03-01T14:22:18;8.30;93.50
19037;DHT22;9651;49.138;8.900;2023-03-01T14:26:22;8.10;93.90
19037;DHT22;9651;49.138;8.900;2023-03-01T14:30:27;8.00;94.10
19037;DHT22;9651;49.138;8.900;2023-03-01T14:34:33;8.10;94.10
19037;DHT22;9651;49.138;8.900;2023-03-01T14:38:37;8.10;94.50
19037;DHT22;9651;49.138;8.900;2023-03-01T14:42:39;8.10;94.40
19037;DHT22;9651;49.138;8.900;2023-03-01T14:46:43;8.20;94.50
19037;DHT22;9651;49.138;8.900;2023-03-01T14:50:47;8.20;94.30
19037;DHT22;9651;49.138;8.900;2023-03-01T14:54:52;8.10;94.70
19037;DHT22;9651;49.138;8.900;2023-03-01T14:58:58;8.10;94.70
19037;DHT22;9651;49.138;8.900;2023-03-01T15:03:03;8.10;94.80
19037;DHT22;9651;49.138;8.900;2023-03-01T15:07:12;8.00;94.90
19037;DHT22;9651;49.138;8.900;2023-03-01T15:11:20;8.00;95.10
19037;DHT22;9651;49.138;8.900;2023-03-01T15:15:36;7.90;94.90
19037;DHT22;9651;49.138;8.900;2023-03-01T15:19:39;8.00;95.30
19037;DHT22;9651;49.138;8.900;2023-03-01T15:23:48;8.00;95.30
19037;DHT22;9651;49.138;8.900;2023-03-01T15:27:52;7.90;95.40
19037;DHT22;9651;49.138;8.900;2023-03-01T15:31:56;7.90;95.60
19037;DHT22;9651;49.138;8.900;2023-03-01T15:36:00;7.90;95.50
19037;DHT22;9651;49.138;8.900;2023-03-01T15:40:19;7.90;95.70
19037;DHT22;9651;49.138;8.900;2023-03-01T15:44:26;7.80;95.00
19037;DHT22;9651;49.138;8.900;2023-03-01T15:48:29;7.80;95.30
19037;DHT22;9651;49.138;8.900;2023-03-01T15:52:34;7.80;95.50
19037;DHT22;9651;49.138;8.900;2023-03-01T15:56:41;7.80;95.60
19037;DHT22;9651;49.138;8.900;2023-03-01T16:00:45;7.60;95.80
19037;DHT22;9651;49.138;8.900;2023-03-01T16:04:48;7.60;96.20
19037;DHT22;9651;49.138;8.900;2023-03-01T16:08:50;7.60;96.10
19037;DHT22;9651;49.138;8.900;2023-03-01T16:12:54;7.60;96.00
19037;DHT22;9651;49.138;8.900;2023-03-01T16:16:56;7.50;96.40
19037;DHT22;9651;49.138;8.900;2023-03-01T16:20:58;7.60;96.60
19037;DHT22;9651;49.138;8.900;2023-03-01T16:24:59;7.40;96.70
19037;DHT22;9651;49.138;8.900;2023-03-01T16:29:04;7.30;97.00
19037;DHT22;9651;49.138;8.900;2023-03-01T16:33:07;7.20;97.30
19037;DHT22;9651;49.138;8.900;2023-03-01T16:37:09;7.20;97.50
19037;DHT22;9651;49.138;8.900;2023-03-01T16:41:13;7.20;97.60
19037;DHT22;9651;49.138;8.900;2023-03-01T16:45:17;7.10;97.80
19037;DHT22;9651;49.138;8.900;2023-03-01T16:49:18;7.00;97.90
19037;DHT22;9651;49.138;8.900;2023-03-01T16:53:20;6.90;98.10
19037;DHT22;9651;49.138;8.900;2023-03-01T16:57:22;6.90;98.30
19037;DHT22;9651;49.138;8.900;2023-03-01T17:01:25;6.80;98.50
19037;DHT22;9651;49.138;8.900;2023-03-01T17:05:35;6.70;98.80
19037;DHT22;9651;49.138;8.900;2023-03-01T17:09:37;6.60;99.00
19037;DHT22;9651;49.138;8.900;2023-03-01T17:13:40;6.60;99.20
19037;DHT22;9651;49.138;8.900;2023-03-01T17:17:43;6.50;99.90
19037;DHT22;9651;49.138;8.900;2023-03-01T17:21:45;6.60;99.90
19037;DHT22;9651;49.138;8.900;2023-03-01T17:25:47;6.60;99.90
19037;DHT22;9651;49.138;8.900;2023-03-01T17:29:49;6.60;99.90
19037;DHT22;9651;49.138;8.900;2023-03-01T17:33:52;6.60;99.90
19037;DHT22;9651;49.138;8.900;2023-03-01T17:37:54;6.60;99.90
19037;DHT22;9651;49.138;8.900;2023-03-01T17:41:56;6.50;99.90
19037;DHT22;9651;49.138;8.900;2023-03-01T17:45:58;6.40;99.90
19037;DHT22;9651;49.138;8.900;2023-03-01T17:50:01;6.30;99.90
19037;DHT22;9651;49.138;8.900;2023-03-01T17:54:05;6.20;99.90
19037;DHT22;9651;49.138;8.900;2023-03-01T17:58:08;6.00;99.90
19037;DHT22;9651;49.138;8.900;2023-03-01T18:02:11;5.80;99.90
19037;DHT22;9651;49.138;8.900;2023-03-01T18:06:16;5.70;99.90
19037;DHT22;9651;49.138;8.900;2023-03-01T18:10:19;5.40;99.90
19037;DHT22;9651;49.138;8.900;2023-03-01T18:14:21;5.30;99.90
19037;DHT22;9651;49.138;8.900;2023-03-01T18:18:24;5.20;99.90
19037;DHT22;9651;49.138;8.900;2023-03-01T18:22:27;5.10;99.90
19037;DHT22;9651;49.138;8.900;2023-03-01T18:26:29;5.00;99.90
19037;DHT22;9651;49.138;8.900;2023-03-01T18:30:31;4.80;99.90
19037;DHT22;9651;49.138;8.900;2023-03-01T18:34:33;4.70;99.90
19037;DHT22;9651;49.138;8.900;2023-03-01T18:38:36;4.50;99.90
19037;DHT22;9651;49.138;8.900;2023-03-01T18:42:38;4.30;99.90
19037;DHT22;9651;49.138;8.900;2023-03-01T18:46:40;4.20;99.90
19037;DHT22;9651;49.138;8.900;2023-03-01T18:50:45;4.10;99.90
19037;DHT22;9651;49.138;8.900;2023-03-01T18:54:49;4.00;99.90
19037;DHT22;9651;49.138;8.900;2023-03-01T18:58:51;4.00;99.90
19037;DHT22;9651;49.138;8.900;2023-03-01T19:02:52;3.90;99.90
19037;DHT22;9651;49.138;8.900;2023-03-01T19:06:54;3.80;99.90
19037;DHT22;9651;49.138;8.900;2023-03-01T19:11:02;3.70;99.90
19037;DHT22;9651;49.138;8.900;2023-03-01T19:15:05;3.70;99.90
19037;DHT22;9651;49.138;8.900;2023-03-01T19:19:07;3.70;99.90
19037;DHT22;9651;49.138;8.900;2023-03-01T19:23:09;3.60;99.90
19037;DHT22;9651;49.138;8.900;2023-03-01T19:27:12;3.50;99.90
19037;DHT22;9651;49.138;8.900;2023-03-01T19:31:16;3.40;99.90
19037;DHT22;9651;49.138;8.900;2023-03-01T19:35:19;3.30;99.90
19037;DHT22;9651;49.138;8.900;2023-03-01T19:39:23;3.30;99.90
19037;DHT22;9651;49.138;8.900;2023-03-01T19:43:28;3.20;99.90
19037;DHT22;9651;49.138;8.900;2023-03-01T19:47:30;3.20;99.90
19037;DHT22;9651;49.138;8.900;2023-03-01T19:51:32;3.10;99.90
19037;DHT22;9651;49.138;8.900;2023-03-01T19:55:36;3.10;99.90
19037;DHT22;9651;49.138;8.900;2023-03-01T19:59:39;3.00;99.90
19037;DHT22;9651;49.138;8.900;2023-03-01T20:03:42;3.00;99.90
19037;DHT22;9651;49.138;8.900;2023-03-01T20:07:44;2.90;99.90
19037;DHT22;9651;49.138;8.900;2023-03-01T20:11:45;2.90;99.90
19037;DHT22;9651;49.138;8.900;2023-03-01T20:15:49;2.90;99.90
19037;DHT22;9651;49.138;8.900;2023-03-01T20:19:51;2.90;99.90
19037;DHT22;9651;49.138;8.900;2023-03-01T20:23:53;2.90;99.90
19037;DHT22;9651;49.138;8.900;2023-03-01T20:27:55;2.80;99.90
19037;DHT22;9651;49.138;8.900;2023-03-01T20:31:59;2.70;99.90
19037;DHT22;9651;49.138;8.900;2023-03-01T20:36:01;2.60;99.90
19037;DHT22;9651;49.138;8.900;2023-03-01T20:40:03;2.60;99.90
19037;DHT22;9651;49.138;8.900;2023-03-01T20:44:05;2.60;99.90
19037;DHT22;9651;49.138;8.900;2023-03-01T20:48:10;2.70;99.90
19037;DHT22;9651;49.138;8.900;2023-03-01T20:52:13;2.80;99.90
19037;DHT22;9651;49.138;8.900;2023-03-01T20:56:16;2.80;99.90
19037;DHT22;9651;49.138;8.900;2023-03-01T21:00:35;2.80;99.90
19037;DHT22;9651;49.138;8.900;2023-03-01T21:04:38;2.80;99.90
19037;DHT22;9651;49.138;8.900;2023-03-01T21:08:40;2.80;99.90
19037;DHT22;9651;49.138;8.900;2023-03-01T21:12:42;2.80;99.90
19037;DHT22;9651;49.138;8.900;2023-03-01T21:16:44;2.80;99.90
19037;DHT22;9651;49.138;8.900;2023-03-01T21:20:47;2.90;99.90
19037;DHT22;9651;49.138;8.900;2023-03-01T21:24:50;3.00;99.90
19037;DHT22;9651;49.138;8.900;2023-03-01T21:28:55;3.00;99.90
19037;DHT22;9651;49.138;8.900;2023-03-01T21:32:57;3.00;99.90
19037;DHT22;9651;49.138;8.900;2023-03-01T21:37:01;3.10;99.90
19037;DHT22;9651;49.138;8.900;2023-03-01T21:41:04;3.10;99.90
19037;DHT22;9651;49.138;8.900;2023-03-01T21:45:07;3.10;99.90
19037;DHT22;9651;49.138;8.900;2023-03-01T21:49:09;3.20;99.90
19037;DHT22;9651;49.138;8.900;2023-03-01T21:53:13;3.20;99.90
19037;DHT22;9651;49.138;8.900;2023-03-01T21:57:15;3.10;99.90
19037;DHT22;9651;49.138;8.900;2023-03-01T22:01:18;3.20;99.90
19037;DHT22;9651;49.138;8.900;2023-03-01T22:05:24;3.20;99.90
19037;DHT22;9651;49.138;8.900;2023-03-01T22:09:27;3.20;99.90
19037;DHT22;9651;49.138;8.900;2023-03-01T22:13:29;3.20;99.90
19037;DHT22;9651;49.138;8.900;2023-03-01T22:17:31;3.20;99.90
19037;DHT22;9651;49.138;8.900;2023-03-01T22:21:33;3.20;99.90
19037;DHT22;9651;49.138;8.900;2023-03-01T22:25:41;3.10;99.90
19037;DHT22;9651;49.138;8.900;2023-03-01T22:29:43;3.10;99.90
19037;DHT22;9651;49.138;8.900;2023-03-01T22:33:45;3.10;99.90
19037;DHT22;9651;49.138;8.900;2023-03-01T22:37:47;3.10;99.90
19037;DHT22;9651;49.138;8.900;2023-03-01T22:41:52;3.10;99.90
19037;DHT22;9651;49.138;8.900;2023-03-01T22:45:54;3.10;99.90
19037;DHT22;9651;49.138;8.900;2023-03-01T22:49:56;3.00;99.90
19037;DHT22;9651;49.138;8.900;2023-03-01T22:53:58;3.00;99.90
19037;DHT22;9651;49.138;8.900;2023-03-01T22:58:01;3.00;99.90
19037;DHT22;9651;49.138;8.900;2023-03-01T23:02:03;3.00;99.90
19037;DHT22;9651;49.138;8.900;2023-03-01T23:06:05;3.00;99.90
19037;DHT22;9651;49.138;8.900;2023-03-01T23:10:09;2.90;99.90
19037;DHT22;9651;49.138;8.900;2023-03-01T23:14:13;2.90;99.90
19037;DHT22;9651;49.138;8.900;2023-03-01T23:18:15;2.80;99.90
19037;DHT22;9651;49.138;8.900;2023-03-01T23:22:19;2.80;99.90
19037;DHT22;9651;49.138;8.900;2023-03-01T23:26:21;2.80;99.90
19037;DHT22;9651;49.138;8.900;2023-03-01T23:30:27;2.80;99.90
19037;DHT22;9651;49.138;8.900;2023-03-01T23:34:28;2.80;99.90
19037;DHT22;9651;49.138;8.900;2023-03-01T23:38:30;2.80;99.90
19037;DHT22;9651;49.138;8.900;2023-03-01T23:42:32;2.70;99.90
19037;DHT22;9651;49.138;8.900;2023-03-01T23:46:36;2.70;99.90
19037;DHT22;9651;49.138;8.900;2023-03-01T23:50:38;2.70;99.90
19037;DHT22;9651;49.138;8.900;2023-03-01T23:54:41;2.60;99.90
19037;DHT22;9651;49.138;8.900;2023-03-01T23:58:43;2.60;99.90
